Archival Weather

Central Park

Central Park, New York (KNYC)

Report from: Thursday, September 21, 2023 7:51 AM EDT
Current time: Sunday, February 25, 2024 4:23 PM EST

Current weather – Weather history – Daily summaries
Weather forecast

Temperature14.4°C (57.9°F)
Dew point8.9°C (48.0°F)
Winds 4 kts (2.1 m/s, 4.6 mph) Vrb
Winds variableWinds variable
Visibility10 mi. (16.1 km)
Clouds Sky clear
Altimeter30.30 in.Hg (1026 mB)
Relative humidity70 %
Density altitude-314 ft. (-96 m)
Sea-level pressure102.5 kPa (1025 mB, 30.28 in.Hg)
Max temp last 6 hours16.7°C (62.1°F)
Min temp last 6 hours13.9°C (57.0°F)
Remarks Fully automated report
System requires maintenance
Automated weather observing station with precipitation discriminator
Pressure rising more quickly
Flight conditions Visual Meteorological Conditions
Raw dataKNYC 211151Z AUTO VRB04KT 10SM CLR 14/09 A3030 RMK AO2 SLP253 T01440089 10167 20139 53020 $
An error has occurred. This application may no longer respond until reloaded. Reload 🗙